createdAt,value
2023-02-17T00:00:56.546Z,28.02
2023-02-17T00:03:24.951Z,29.48
2023-02-17T00:05:53.186Z,29.48
2023-02-17T00:08:20.445Z,28.88
2023-02-17T00:10:58.295Z,29.02
2023-02-17T00:13:25.988Z,29.48
2023-02-17T00:15:53.406Z,27.40
2023-02-17T00:18:20.745Z,28.52
2023-02-17T00:20:47.886Z,28.92
2023-02-17T00:23:15.065Z,28.65
2023-02-17T00:25:42.225Z,29.58
2023-02-17T00:28:09.434Z,32.47
2023-02-17T00:30:39.417Z,33.22
2023-02-17T00:33:06.687Z,31.73
2023-02-17T00:35:33.917Z,31.83
2023-02-17T00:38:01.163Z,34.33
2023-02-17T00:40:28.264Z,34.97
2023-02-17T00:42:55.554Z,32.75
2023-02-17T00:45:22.727Z,33.58
2023-02-17T00:47:49.915Z,32.60
2023-02-17T00:50:17.527Z,33.00
2023-02-17T00:52:44.756Z,33.33
2023-02-17T00:55:12.217Z,32.92
2023-02-17T00:57:39.404Z,32.88
2023-02-17T01:00:07.214Z,32.15
2023-02-17T01:02:34.597Z,31.55
2023-02-17T01:05:01.742Z,31.98
2023-02-17T01:07:28.929Z,33.15
2023-02-17T01:09:56.087Z,31.38
2023-02-17T01:12:23.357Z,32.78
2023-02-17T01:14:52.046Z,31.50
2023-02-17T01:17:19.293Z,30.52
2023-02-17T01:19:46.722Z,31.38
2023-02-17T01:22:14.163Z,31.63
2023-02-17T01:24:41.313Z,31.85
2023-02-17T01:27:08.554Z,32.97
2023-02-17T01:29:35.752Z,31.05
2023-02-17T01:32:04.089Z,33.13
2023-02-17T01:34:31.349Z,32.40
2023-02-17T01:36:59.635Z,29.85
2023-02-17T01:39:26.806Z,30.58
2023-02-17T01:41:53.991Z,31.13
2023-02-17T01:44:24.090Z,30.75
2023-02-17T01:46:53.735Z,32.28
2023-02-17T01:49:22.048Z,30.00
2023-02-17T01:52:02.490Z,29.50
2023-02-17T01:54:36.142Z,30.20
2023-02-17T01:57:03.943Z,22.33
2023-02-17T01:59:32.351Z,28.20
2023-02-17T02:02:03.034Z,28.73
2023-02-17T02:04:33.889Z,28.85
2023-02-17T02:07:04.338Z,28.15
2023-02-17T02:09:36.660Z,29.10
2023-02-17T02:12:15.955Z,28.80
2023-02-17T02:14:46.362Z,27.65
2023-02-17T02:17:27.417Z,28.77
2023-02-17T02:19:57.972Z,29.83
2023-02-17T02:22:45.107Z,29.92
2023-02-17T02:25:32.150Z,27.90
2023-02-17T02:28:30.859Z,26.73
2023-02-17T02:31:19.787Z,27.10
2023-02-17T02:33:59.026Z,27.02
2023-02-17T02:36:33.227Z,26.42
2023-02-17T02:39:03.343Z,25.92
2023-02-17T02:41:37.971Z,27.38
2023-02-17T02:44:08.350Z,26.30
2023-02-17T02:46:35.975Z,28.45
2023-02-17T02:49:04.808Z,32.10
2023-02-17T02:51:51.432Z,27.42
2023-02-17T02:54:40.307Z,27.58
2023-02-17T02:57:27.641Z,27.20
2023-02-17T03:00:10.476Z,27.40
2023-02-17T03:02:59.597Z,26.90
2023-02-17T03:05:27.930Z,25.13
2023-02-17T03:07:58.641Z,26.38
2023-02-17T03:10:26.187Z,27.73
2023-02-17T03:12:53.548Z,28.52
2023-02-17T03:15:28.289Z,26.88
2023-02-17T03:17:58.298Z,26.55
2023-02-17T03:20:27.872Z,27.73
2023-02-17T03:22:55.362Z,27.60
2023-02-17T03:25:24.550Z,24.50
2023-02-17T03:27:51.810Z,27.73
2023-02-17T03:30:19.365Z,26.33
2023-02-17T03:32:47.192Z,25.55
2023-02-17T03:35:14.732Z,26.80
2023-02-17T03:37:42.100Z,24.55
2023-02-17T03:40:09.778Z,23.60
2023-02-17T03:42:36.952Z,25.40
2023-02-17T03:45:05.689Z,23.08
2023-02-17T03:47:32.819Z,24.80
2023-02-17T03:49:59.991Z,23.75
2023-02-17T03:52:27.188Z,23.10
2023-02-17T03:54:54.392Z,23.63
2023-02-17T03:57:21.521Z,23.52
2023-02-17T03:59:48.650Z,22.67
2023-02-17T04:02:15.783Z,22.50
2023-02-17T04:04:43.001Z,23.08
2023-02-17T04:07:10.079Z,23.35
2023-02-17T04:09:37.299Z,22.55
2023-02-17T04:12:05.271Z,22.83
2023-02-17T04:14:32.449Z,24.70
2023-02-17T04:16:59.748Z,23.40
2023-02-17T04:19:26.953Z,23.45
2023-02-17T04:21:54.131Z,24.13
2023-02-17T04:24:21.519Z,23.70
2023-02-17T04:26:48.770Z,23.63
2023-02-17T04:29:15.958Z,22.30
2023-02-17T04:31:43.126Z,22.98
2023-02-17T04:34:10.337Z,24.23
2023-02-17T04:36:37.506Z,23.83
2023-02-17T04:39:04.596Z,23.10
2023-02-17T04:41:31.739Z,23.42
2023-02-17T04:43:58.891Z,23.75
2023-02-17T04:46:26.044Z,25.23
2023-02-17T04:48:53.504Z,25.15
2023-02-17T04:51:20.704Z,24.92
2023-02-17T04:53:48.167Z,21.92
2023-02-17T04:56:15.455Z,23.45
2023-02-17T04:58:42.848Z,22.35
2023-02-17T05:01:10.084Z,21.80
2023-02-17T05:03:37.395Z,22.13
2023-02-17T05:06:05.132Z,22.35
2023-02-17T05:08:32.543Z,22.05
2023-02-17T05:10:59.670Z,20.38
2023-02-17T05:13:27.773Z,22.15
2023-02-17T05:15:55.083Z,22.58
2023-02-17T05:18:22.396Z,21.63
2023-02-17T05:20:49.482Z,22.08
2023-02-17T05:23:17.106Z,20.60
2023-02-17T05:25:44.280Z,21.02
2023-02-17T05:28:11.594Z,23.35
2023-02-17T05:30:38.734Z,21.30
2023-02-17T05:33:05.934Z,20.92
2023-02-17T05:35:35.430Z,22.48
2023-02-17T05:38:02.566Z,21.67
2023-02-17T05:40:29.812Z,23.00
2023-02-17T05:42:56.977Z,24.60
2023-02-17T05:45:24.235Z,24.15
2023-02-17T05:47:51.460Z,24.02
2023-02-17T05:50:18.639Z,24.02
2023-02-17T05:52:49.213Z,21.75
2023-02-17T05:55:16.541Z,22.33
2023-02-17T05:57:43.742Z,23.75
2023-02-17T06:00:11.508Z,23.50
2023-02-17T06:02:39.894Z,22.33
2023-02-17T06:05:08.164Z,20.25
2023-02-17T06:07:35.416Z,19.30
2023-02-17T06:10:03.006Z,20.35
2023-02-17T06:12:30.241Z,20.15
2023-02-17T06:14:57.375Z,20.75
2023-02-17T06:17:24.519Z,20.85
2023-02-17T06:19:51.680Z,18.48
2023-02-17T06:22:18.865Z,20.30
2023-02-17T06:24:45.991Z,19.13
2023-02-17T06:27:13.223Z,24.35
2023-02-17T06:29:40.374Z,34.28
2023-02-17T06:32:07.815Z,30.98
2023-02-17T06:34:35.015Z,26.88
2023-02-17T06:37:02.183Z,29.75
2023-02-17T06:39:29.441Z,29.20
2023-02-17T06:41:56.681Z,26.67
2023-02-17T06:44:23.804Z,26.30
2023-02-17T06:46:51.028Z,23.75
2023-02-17T06:49:18.508Z,23.88
2023-02-17T06:51:45.848Z,21.83
2023-02-17T06:54:13.214Z,21.00
2023-02-17T06:56:40.790Z,27.60
2023-02-17T06:59:07.933Z,29.42
2023-02-17T07:01:35.166Z,25.20
2023-02-17T07:04:02.367Z,25.17
2023-02-17T07:06:29.808Z,25.90
2023-02-17T07:08:57.268Z,25.83
2023-02-17T07:11:24.607Z,22.95
2023-02-17T07:13:52.778Z,25.58
2023-02-17T07:16:20.013Z,20.83
2023-02-17T07:18:47.270Z,19.77
2023-02-17T07:21:15.267Z,18.90
2023-02-17T07:23:42.599Z,19.45
2023-02-17T07:26:11.835Z,19.10
2023-02-17T07:28:40.356Z,17.63
2023-02-17T07:31:09.677Z,17.73
2023-02-17T07:33:37.562Z,17.80
2023-02-17T07:36:07.755Z,19.15
2023-02-17T07:38:36.021Z,17.95
2023-02-17T07:41:08.457Z,18.13
2023-02-17T07:43:36.272Z,17.63
2023-02-17T07:46:05.440Z,17.70
2023-02-17T07:48:32.765Z,17.63
2023-02-17T07:51:19.185Z,18.77
2023-02-17T07:53:46.544Z,19.27
2023-02-17T07:56:15.771Z,18.00
2023-02-17T07:58:44.438Z,18.17
2023-02-17T08:01:15.294Z,17.73
2023-02-17T08:03:43.244Z,18.67
2023-02-17T08:06:13.475Z,20.08
2023-02-17T08:09:01.233Z,17.55
2023-02-17T08:11:49.803Z,18.02
2023-02-17T08:14:18.018Z,17.60
2023-02-17T08:16:45.324Z,16.13
2023-02-17T08:19:12.625Z,16.77
2023-02-17T08:21:40.206Z,19.98
2023-02-17T08:24:07.474Z,18.30
2023-02-17T08:26:34.650Z,17.58
2023-02-17T08:29:01.804Z,16.48
2023-02-17T08:31:32.460Z,16.27
2023-02-17T08:34:02.051Z,16.52
2023-02-17T08:36:30.027Z,16.38
2023-02-17T08:38:58.360Z,15.35
2023-02-17T08:41:25.477Z,15.52
2023-02-17T08:43:52.956Z,15.70
2023-02-17T08:46:20.601Z,15.23
2023-02-17T08:48:48.232Z,15.55
2023-02-17T08:51:19.179Z,14.73
2023-02-17T08:53:47.025Z,15.05
2023-02-17T08:56:14.170Z,15.02
2023-02-17T08:58:41.407Z,15.00
2023-02-17T09:01:08.877Z,15.75
2023-02-17T09:03:37.845Z,15.55
2023-02-17T09:06:07.127Z,15.27
2023-02-17T09:08:34.933Z,15.35
2023-02-17T09:11:02.189Z,14.75
2023-02-17T09:13:29.449Z,14.05
2023-02-17T09:15:56.756Z,14.45
2023-02-17T09:18:24.535Z,14.38
2023-02-17T09:20:52.391Z,13.90
2023-02-17T09:23:20.372Z,14.35
2023-02-17T09:25:47.733Z,14.48
2023-02-17T09:28:15.555Z,13.70
2023-02-17T09:30:43.281Z,13.55
2023-02-17T09:33:10.630Z,12.60
2023-02-17T09:35:38.300Z,10.57
2023-02-17T09:38:05.858Z,10.52
2023-02-17T09:40:50.304Z,10.57
2023-02-17T09:43:30.594Z,11.13
2023-02-17T09:46:02.430Z,10.50
2023-02-17T09:48:32.788Z,10.95
2023-02-17T09:51:06.812Z,11.32
2023-02-17T09:56:11.637Z,11.65
2023-02-17T09:58:58.081Z,12.38
2023-02-17T10:01:31.046Z,12.05
2023-02-17T10:04:01.662Z,11.43
2023-02-17T10:06:35.995Z,11.50
2023-02-17T10:09:04.308Z,11.02
2023-02-17T10:11:34.685Z,11.70
2023-02-17T10:14:27.534Z,11.90
2023-02-17T10:17:04.108Z,12.90
2023-02-17T10:19:38.891Z,13.43
2023-02-17T10:22:10.616Z,13.25
2023-02-17T10:24:37.817Z,13.32
2023-02-17T10:27:12.417Z,13.45
2023-02-17T10:30:01.549Z,13.02
2023-02-17T10:32:30.575Z,13.27
2023-02-17T10:35:01.950Z,13.90
2023-02-17T10:37:46.053Z,14.10
2023-02-17T10:40:23.041Z,14.00
2023-02-17T10:42:56.204Z,12.57
2023-02-17T10:45:43.903Z,12.90
2023-02-17T10:48:18.195Z,13.02
2023-02-17T10:50:48.172Z,13.77
2023-02-17T10:53:20.727Z,13.65
2023-02-17T10:56:02.829Z,14.75
2023-02-17T10:58:34.207Z,14.68
2023-02-17T11:01:04.912Z,13.65
2023-02-17T11:03:34.576Z,14.00
2023-02-17T11:06:05.324Z,13.60
2023-02-17T11:08:46.194Z,13.95
2023-02-17T11:11:25.003Z,13.38
2023-02-17T11:14:18.146Z,13.90
2023-02-17T11:16:51.577Z,14.27
2023-02-17T11:19:36.172Z,14.02
2023-02-17T11:22:07.482Z,14.75
2023-02-17T11:24:35.971Z,14.88
2023-02-17T11:27:09.023Z,15.15
2023-02-17T11:29:37.161Z,14.55
2023-02-17T11:32:09.383Z,14.80
2023-02-17T11:34:39.304Z,14.23
2023-02-17T11:37:14.315Z,14.88
2023-02-17T11:39:45.223Z,14.63
2023-02-17T11:42:24.220Z,14.27
2023-02-17T11:44:54.265Z,15.32
2023-02-17T11:47:35.212Z,14.85
2023-02-17T11:50:40.762Z,14.38
2023-02-17T11:53:38.419Z,14.23
2023-02-17T11:56:08.663Z,14.00
2023-02-17T11:58:50.225Z,13.63
2023-02-17T12:01:41.951Z,14.75
2023-02-17T12:04:22.071Z,15.38
2023-02-17T12:07:14.053Z,15.98
2023-02-17T12:10:03.345Z,14.80
2023-02-17T12:12:51.179Z,16.08
2023-02-17T12:15:54.534Z,15.48
2023-02-17T12:18:21.835Z,15.65
2023-02-17T12:21:19.042Z,16.23
2023-02-17T12:23:55.250Z,16.45
2023-02-17T12:26:45.988Z,17.45
2023-02-17T12:29:30.291Z,17.27
2023-02-17T12:32:09.338Z,16.85
2023-02-17T12:34:40.078Z,17.63
2023-02-17T12:37:17.884Z,17.77
2023-02-17T12:39:54.995Z,17.45
2023-02-17T12:42:30.332Z,16.65
2023-02-17T12:45:04.177Z,17.65
2023-02-17T12:47:56.871Z,17.65
2023-02-17T12:50:28.105Z,16.70
2023-02-17T12:53:01.099Z,17.45
2023-02-17T12:55:50.575Z,16.33
2023-02-17T12:58:22.800Z,15.82
2023-02-17T13:00:55.616Z,16.48
2023-02-17T13:03:23.310Z,17.08
2023-02-17T13:06:09.525Z,17.23
2023-02-17T13:08:47.210Z,18.25
2023-02-17T13:11:28.297Z,17.65
2023-02-17T13:13:55.516Z,17.70
2023-02-17T13:16:23.398Z,17.85
2023-02-17T13:18:52.345Z,18.10
2023-02-17T13:21:20.741Z,18.27
2023-02-17T13:24:00.661Z,18.95
2023-02-17T13:26:31.787Z,18.60
2023-02-17T13:29:26.447Z,17.60
2023-02-17T13:31:56.952Z,18.55
2023-02-17T13:34:35.090Z,14.27
2023-02-17T13:37:23.727Z,14.32
2023-02-17T13:39:51.242Z,16.45
2023-02-17T13:42:39.968Z,15.25
2023-02-17T13:45:28.562Z,15.20
2023-02-17T13:48:19.810Z,14.93
2023-02-17T13:50:54.994Z,15.77
2023-02-17T13:53:40.597Z,19.15
2023-02-17T13:56:12.578Z,19.55
2023-02-17T13:58:42.173Z,16.92
2023-02-17T14:01:15.830Z,18.88
2023-02-17T14:03:50.927Z,19.88
2023-02-17T14:06:26.655Z,20.27
2023-02-17T14:08:54.391Z,19.67
2023-02-17T14:11:25.967Z,19.10
2023-02-17T14:13:56.046Z,18.95
2023-02-17T14:16:31.922Z,19.48
2023-02-17T14:19:08.187Z,18.40
2023-02-17T14:21:38.397Z,20.20
2023-02-17T14:24:06.292Z,18.83
2023-02-17T14:26:49.105Z,18.75
2023-02-17T14:29:16.953Z,19.13
2023-02-17T14:31:48.016Z,18.25
2023-02-17T14:34:27.183Z,19.27
2023-02-17T14:36:55.184Z,19.05
2023-02-17T14:39:22.419Z,19.33
2023-02-17T14:41:49.770Z,18.05
2023-02-17T14:44:16.986Z,18.73
2023-02-17T14:46:44.269Z,17.92
2023-02-17T14:49:11.363Z,17.85
2023-02-17T14:51:39.510Z,17.08
2023-02-17T14:54:14.576Z,16.55
2023-02-17T14:57:03.720Z,17.77
2023-02-17T14:59:31.003Z,17.63
2023-02-17T15:01:58.393Z,18.92
2023-02-17T15:04:25.664Z,18.42
2023-02-17T15:06:54.926Z,17.75
2023-02-17T15:09:29.692Z,18.85
2023-02-17T15:11:57.946Z,17.02
2023-02-17T15:14:25.209Z,15.48
2023-02-17T15:16:52.529Z,14.68
2023-02-17T15:19:20.128Z,15.43
2023-02-17T15:21:51.731Z,15.82
2023-02-17T15:24:26.459Z,15.10
2023-02-17T15:26:56.631Z,17.38
2023-02-17T15:29:25.549Z,16.15
2023-02-17T15:31:55.310Z,15.98
2023-02-17T15:34:26.370Z,16.27
2023-02-17T15:36:53.734Z,18.65
2023-02-17T15:39:22.606Z,18.20
2023-02-17T15:41:51.726Z,19.08
2023-02-17T15:44:26.305Z,19.90
2023-02-17T15:49:22.735Z,19.90
2023-02-17T15:51:50.125Z,19.30
2023-02-17T15:54:19.525Z,19.13
2023-02-17T15:56:51.004Z,19.35
2023-02-17T15:59:23.766Z,18.30
2023-02-17T16:01:51.007Z,19.02
2023-02-17T16:04:18.850Z,17.38
2023-02-17T16:06:46.554Z,17.85
2023-02-17T16:09:14.606Z,17.30
2023-02-17T16:11:52.026Z,17.95
2023-02-17T16:14:34.373Z,16.00
2023-02-17T16:17:03.260Z,17.25
2023-02-17T16:19:31.783Z,16.40
2023-02-17T16:21:59.720Z,16.65
2023-02-17T16:24:27.057Z,16.70
2023-02-17T16:26:54.369Z,15.50
2023-02-17T16:29:22.547Z,16.00
2023-02-17T16:31:50.618Z,18.40
2023-02-17T16:34:21.488Z,18.80
2023-02-17T16:36:52.515Z,17.05
2023-02-17T16:39:21.772Z,18.20
2023-02-17T16:41:49.896Z,18.35
2023-02-17T16:44:19.250Z,19.63
2023-02-17T16:46:49.764Z,18.98
2023-02-17T16:49:24.791Z,20.58
2023-02-17T16:51:52.960Z,19.45
2023-02-17T16:54:20.458Z,18.88
2023-02-17T16:56:51.012Z,19.23
2023-02-17T16:59:21.435Z,19.90
2023-02-17T17:01:51.168Z,20.42
2023-02-17T17:04:19.096Z,20.25
2023-02-17T17:06:49.596Z,19.70
2023-02-17T17:09:21.428Z,18.48
2023-02-17T17:11:48.933Z,19.27
2023-02-17T17:14:16.821Z,18.83
2023-02-17T17:16:49.773Z,16.35
2023-02-17T17:19:17.400Z,19.90
2023-02-17T17:21:44.605Z,19.33
2023-02-17T17:24:11.924Z,17.00
2023-02-17T17:26:44.847Z,16.08
2023-02-17T17:29:14.095Z,16.10
2023-02-17T17:31:41.378Z,14.73
2023-02-17T17:34:08.761Z,16.15
2023-02-17T17:36:39.386Z,17.23
2023-02-17T17:39:08.523Z,16.92
2023-02-17T17:41:35.695Z,15.52
2023-02-17T17:44:03.363Z,18.73
2023-02-17T17:46:34.488Z,18.10
2023-02-17T17:49:02.102Z,16.45
2023-02-17T17:51:31.288Z,17.80
2023-02-17T17:53:58.513Z,15.52
2023-02-17T17:56:29.466Z,13.55
2023-02-17T17:58:58.557Z,16.10
2023-02-17T18:01:26.900Z,14.70
2023-02-17T18:03:54.755Z,17.65
2023-02-17T18:06:26.269Z,16.73
2023-02-17T18:08:56.770Z,17.33
2023-02-17T18:11:25.006Z,16.83
2023-02-17T18:13:56.658Z,17.17
2023-02-17T18:16:26.417Z,16.58
2023-02-17T18:18:54.732Z,19.23
2023-02-17T18:21:21.961Z,25.55
2023-02-17T18:23:49.159Z,27.38
2023-02-17T18:26:17.135Z,25.23
2023-02-17T18:28:45.184Z,26.23
2023-02-17T18:31:14.875Z,25.38
2023-02-17T18:33:42.228Z,22.33
2023-02-17T18:36:13.199Z,23.60
2023-02-17T18:38:41.177Z,20.40
2023-02-17T18:41:09.501Z,20.90
2023-02-17T18:43:37.140Z,22.60
2023-02-17T18:46:04.843Z,23.50
2023-02-17T18:48:32.630Z,25.52
2023-02-17T18:50:59.863Z,24.00
2023-02-17T18:53:28.234Z,24.45
2023-02-17T18:55:55.668Z,26.02
2023-02-17T18:58:23.193Z,27.88
2023-02-17T19:00:50.624Z,31.35
2023-02-17T19:03:17.910Z,33.47
2023-02-17T19:05:45.319Z,26.50
2023-02-17T19:08:12.669Z,24.15
2023-02-17T19:10:40.014Z,24.83
2023-02-17T19:13:07.853Z,24.23
2023-02-17T19:15:36.089Z,23.05
2023-02-17T19:18:03.817Z,22.02
2023-02-17T19:20:32.388Z,20.77
2023-02-17T19:23:02.912Z,21.63
2023-02-17T19:25:30.643Z,20.73
2023-02-17T19:27:58.352Z,20.40
2023-02-17T19:30:25.736Z,20.52
2023-02-17T19:32:53.744Z,20.05
2023-02-17T19:35:21.113Z,18.75
2023-02-17T19:37:48.579Z,19.45
2023-02-17T19:40:15.826Z,19.23
2023-02-17T19:42:43.635Z,20.05
2023-02-17T19:45:10.831Z,19.58
2023-02-17T19:47:38.634Z,19.55
2023-02-17T19:50:06.758Z,18.98
2023-02-17T19:52:34.292Z,19.65
2023-02-17T19:55:01.668Z,17.52
2023-02-17T19:57:29.907Z,18.98
2023-02-17T19:59:57.316Z,20.45
2023-02-17T20:02:24.608Z,20.73
2023-02-17T20:04:52.430Z,19.35
2023-02-17T20:07:19.870Z,19.58
2023-02-17T20:09:47.748Z,18.58
2023-02-17T20:12:15.162Z,17.83
2023-02-17T20:14:42.903Z,18.40
2023-02-17T20:17:10.375Z,18.73
2023-02-17T20:19:39.428Z,19.42
2023-02-17T20:22:08.102Z,18.05
2023-02-17T20:24:36.977Z,17.95
2023-02-17T20:27:04.430Z,17.90
2023-02-17T20:29:31.866Z,19.67
2023-02-17T20:31:59.169Z,19.48
2023-02-17T20:34:32.165Z,19.35
2023-02-17T20:36:59.896Z,20.30
2023-02-17T20:39:27.708Z,17.40
2023-02-17T20:41:56.573Z,19.15
2023-02-17T20:44:27.769Z,17.70
2023-02-17T20:46:56.233Z,16.55
2023-02-17T20:49:24.184Z,17.27
2023-02-17T20:51:51.513Z,17.98
2023-02-17T20:54:18.993Z,18.17
2023-02-17T20:56:47.649Z,19.67
2023-02-17T20:59:15.371Z,18.40
2023-02-17T21:01:43.492Z,16.92
2023-02-17T21:04:11.230Z,17.83
2023-02-17T21:06:41.469Z,17.42
2023-02-17T21:09:14.427Z,18.85
2023-02-17T21:11:42.354Z,19.17
2023-02-17T21:14:10.113Z,18.13
2023-02-17T21:16:37.662Z,19.30
2023-02-17T21:19:05.201Z,17.92
2023-02-17T21:21:33.627Z,20.67
2023-02-17T21:24:00.939Z,20.10
2023-02-17T21:26:28.634Z,19.98
2023-02-17T21:28:55.800Z,20.50
2023-02-17T21:31:23.557Z,17.83
2023-02-17T21:33:50.748Z,18.25
2023-02-17T21:36:19.752Z,16.75
2023-02-17T21:38:48.271Z,16.30
2023-02-17T21:41:19.278Z,15.63
2023-02-17T21:44:06.924Z,15.65
2023-02-17T21:46:34.890Z,14.60
2023-02-17T21:49:02.518Z,14.75
2023-02-17T21:51:30.108Z,14.63
2023-02-17T21:53:58.089Z,12.95
2023-02-17T21:56:25.604Z,13.18
2023-02-17T21:58:55.208Z,14.23
2023-02-17T22:01:24.293Z,14.05
2023-02-17T22:03:52.213Z,15.90
2023-02-17T22:06:20.538Z,15.20
2023-02-17T22:08:48.370Z,16.73
2023-02-17T22:11:18.163Z,15.32
2023-02-17T22:13:45.897Z,19.08
2023-02-17T22:16:13.593Z,16.40
2023-02-17T22:18:41.524Z,14.77
2023-02-17T22:21:11.231Z,15.82
2023-02-17T22:23:38.982Z,17.33
2023-02-17T22:26:09.484Z,17.80
2023-02-17T22:28:37.588Z,17.10
2023-02-17T22:31:06.035Z,15.90
2023-02-17T22:33:33.914Z,17.00
2023-02-17T22:36:05.082Z,16.10
2023-02-17T22:38:33.415Z,15.40
2023-02-17T22:41:00.828Z,13.45
2023-02-17T22:43:28.303Z,14.85
2023-02-17T22:45:59.960Z,14.45
2023-02-17T22:48:29.136Z,15.55
2023-02-17T22:50:56.532Z,16.52
2023-02-17T22:53:24.215Z,16.92
2023-02-17T22:55:53.943Z,18.85
2023-02-17T22:58:22.309Z,19.52
2023-02-17T23:00:49.782Z,20.48
2023-02-17T23:03:18.248Z,22.70
2023-02-17T23:05:47.024Z,20.77
2023-02-17T23:08:14.207Z,23.60
2023-02-17T23:10:43.037Z,23.75
2023-02-17T23:13:10.959Z,23.42
2023-02-17T23:15:41.608Z,23.52
2023-02-17T23:18:13.226Z,24.95
2023-02-17T23:20:43.032Z,24.10
2023-02-17T23:23:11.431Z,25.48
2023-02-17T23:25:41.369Z,24.70
2023-02-17T23:28:08.887Z,24.55
2023-02-17T23:30:36.193Z,24.20
2023-02-17T23:33:03.580Z,24.05
2023-02-17T23:35:30.732Z,23.67
2023-02-17T23:37:57.960Z,24.63
2023-02-17T23:40:25.167Z,23.30
2023-02-17T23:42:52.432Z,23.02
2023-02-17T23:45:19.586Z,20.08
2023-02-17T23:47:46.865Z,21.50
2023-02-17T23:50:16.763Z,21.90
2023-02-17T23:52:44.499Z,24.25
2023-02-17T23:55:11.669Z,23.73
2023-02-17T23:57:39.929Z,24.52
